sensor_id;sensor_type;location;lat;lon;timestamp;P1;durP1;ratioP1;P2;durP2;ratioP2
28180;SDS011;15464;50.988;10.318;2023-04-06T00:00:13;16.70;;;12.30;;
28180;SDS011;15464;50.988;10.318;2023-04-06T00:02:40;16.58;;;12.35;;
28180;SDS011;15464;50.988;10.318;2023-04-06T00:05:07;17.88;;;13.68;;
28180;SDS011;15464;50.988;10.318;2023-04-06T00:07:34;17.23;;;12.27;;
28180;SDS011;15464;50.988;10.318;2023-04-06T00:10:01;16.80;;;12.00;;
28180;SDS011;15464;50.988;10.318;2023-04-06T00:12:29;15.05;;;12.20;;
28180;SDS011;15464;50.988;10.318;2023-04-06T00:14:56;18.45;;;13.32;;
28180;SDS011;15464;50.988;10.318;2023-04-06T00:17:23;16.48;;;11.98;;
28180;SDS011;15464;50.988;10.318;2023-04-06T00:19:49;14.57;;;11.88;;
28180;SDS011;15464;50.988;10.318;2023-04-06T00:22:16;20.13;;;13.40;;
28180;SDS011;15464;50.988;10.318;2023-04-06T00:24:43;13.10;;;10.38;;
28180;SDS011;15464;50.988;10.318;2023-04-06T00:27:09;16.88;;;12.52;;
28180;SDS011;15464;50.988;10.318;2023-04-06T00:29:36;15.65;;;11.73;;
28180;SDS011;15464;50.988;10.318;2023-04-06T00:32:03;14.77;;;12.10;;
28180;SDS011;15464;50.988;10.318;2023-04-06T00:34:30;16.60;;;12.52;;
28180;SDS011;15464;50.988;10.318;2023-04-06T00:36:56;14.50;;;11.85;;
28180;SDS011;15464;50.988;10.318;2023-04-06T00:39:23;15.88;;;12.85;;
28180;SDS011;15464;50.988;10.318;2023-04-06T00:41:51;20.88;;;13.82;;
28180;SDS011;15464;50.988;10.318;2023-04-06T00:44:19;16.20;;;12.23;;
28180;SDS011;15464;50.988;10.318;2023-04-06T00:46:46;17.27;;;12.18;;
28180;SDS011;15464;50.988;10.318;2023-04-06T00:49:13;14.70;;;10.73;;
28180;SDS011;15464;50.988;10.318;2023-04-06T00:51:40;16.13;;;11.63;;
28180;SDS011;15464;50.988;10.318;2023-04-06T00:54:06;18.35;;;13.18;;
28180;SDS011;15464;50.988;10.318;2023-04-06T00:56:33;17.00;;;11.32;;
28180;SDS011;15464;50.988;10.318;2023-04-06T00:59:00;14.10;;;11.15;;
28180;SDS011;15464;50.988;10.318;2023-04-06T01:01:28;16.73;;;12.57;;
28180;SDS011;15464;50.988;10.318;2023-04-06T01:03:55;14.75;;;11.05;;
28180;SDS011;15464;50.988;10.318;2023-04-06T01:06:22;14.70;;;10.68;;
28180;SDS011;15464;50.988;10.318;2023-04-06T01:08:48;15.25;;;12.13;;
28180;SDS011;15464;50.988;10.318;2023-04-06T01:11:15;15.80;;;11.70;;
28180;SDS011;15464;50.988;10.318;2023-04-06T01:13:43;15.90;;;12.70;;
28180;SDS011;15464;50.988;10.318;2023-04-06T01:16:10;15.30;;;11.70;;
28180;SDS011;15464;50.988;10.318;2023-04-06T01:18:37;14.82;;;11.32;;
28180;SDS011;15464;50.988;10.318;2023-04-06T01:21:04;16.63;;;11.65;;
28180;SDS011;15464;50.988;10.318;2023-04-06T01:23:31;15.57;;;11.00;;
28180;SDS011;15464;50.988;10.318;2023-04-06T01:25:58;16.02;;;11.52;;
28180;SDS011;15464;50.988;10.318;2023-04-06T01:28:24;13.93;;;10.85;;
28180;SDS011;15464;50.988;10.318;2023-04-06T01:30:51;14.05;;;10.38;;
28180;SDS011;15464;50.988;10.318;2023-04-06T01:33:18;15.90;;;10.20;;
28180;SDS011;15464;50.988;10.318;2023-04-06T01:35:45;12.30;;;9.98;;
28180;SDS011;15464;50.988;10.318;2023-04-06T01:38:11;16.45;;;10.45;;
28180;SDS011;15464;50.988;10.318;2023-04-06T01:40:38;11.73;;;9.40;;
28180;SDS011;15464;50.988;10.318;2023-04-06T01:43:05;11.75;;;9.90;;
28180;SDS011;15464;50.988;10.318;2023-04-06T01:45:32;15.52;;;9.50;;
28180;SDS011;15464;50.988;10.318;2023-04-06T01:47:59;17.38;;;9.95;;
28180;SDS011;15464;50.988;10.318;2023-04-06T01:50:26;13.80;;;9.70;;
28180;SDS011;15464;50.988;10.318;2023-04-06T01:52:53;14.68;;;10.65;;
28180;SDS011;15464;50.988;10.318;2023-04-06T01:55:19;13.07;;;9.45;;
28180;SDS011;15464;50.988;10.318;2023-04-06T01:57:46;11.02;;;9.45;;
28180;SDS011;15464;50.988;10.318;2023-04-06T02:00:13;12.75;;;9.18;;
28180;SDS011;15464;50.988;10.318;2023-04-06T02:02:40;10.80;;;8.07;;
28180;SDS011;15464;50.988;10.318;2023-04-06T02:05:07;13.40;;;10.18;;
28180;SDS011;15464;50.988;10.318;2023-04-06T02:07:35;16.13;;;11.75;;
28180;SDS011;15464;50.988;10.318;2023-04-06T02:10:01;16.02;;;11.98;;
28180;SDS011;15464;50.988;10.318;2023-04-06T02:12:28;12.23;;;9.25;;
28180;SDS011;15464;50.988;10.318;2023-04-06T02:14:55;17.52;;;12.65;;
28180;SDS011;15464;50.988;10.318;2023-04-06T02:17:22;12.93;;;10.07;;
28180;SDS011;15464;50.988;10.318;2023-04-06T02:19:49;15.95;;;11.23;;
28180;SDS011;15464;50.988;10.318;2023-04-06T02:22:16;20.50;;;12.77;;
28180;SDS011;15464;50.988;10.318;2023-04-06T02:24:43;18.17;;;11.25;;
28180;SDS011;15464;50.988;10.318;2023-04-06T02:27:09;16.23;;;12.85;;
28180;SDS011;15464;50.988;10.318;2023-04-06T02:29:36;16.23;;;13.05;;
28180;SDS011;15464;50.988;10.318;2023-04-06T02:32:03;14.15;;;12.35;;
28180;SDS011;15464;50.988;10.318;2023-04-06T02:34:30;17.40;;;12.23;;
28180;SDS011;15464;50.988;10.318;2023-04-06T02:36:57;16.55;;;11.95;;
28180;SDS011;15464;50.988;10.318;2023-04-06T02:39:23;17.75;;;12.55;;
28180;SDS011;15464;50.988;10.318;2023-04-06T02:41:50;15.30;;;12.20;;
28180;SDS011;15464;50.988;10.318;2023-04-06T02:44:17;15.80;;;11.02;;
28180;SDS011;15464;50.988;10.318;2023-04-06T02:46:43;16.73;;;11.60;;
28180;SDS011;15464;50.988;10.318;2023-04-06T02:49:10;17.10;;;12.90;;
28180;SDS011;15464;50.988;10.318;2023-04-06T02:51:37;15.63;;;12.73;;
28180;SDS011;15464;50.988;10.318;2023-04-06T02:54:03;15.18;;;12.30;;
28180;SDS011;15464;50.988;10.318;2023-04-06T02:56:30;17.38;;;12.30;;
28180;SDS011;15464;50.988;10.318;2023-04-06T02:58:57;16.65;;;12.90;;
28180;SDS011;15464;50.988;10.318;2023-04-06T03:01:25;15.85;;;12.25;;
28180;SDS011;15464;50.988;10.318;2023-04-06T03:03:52;17.80;;;13.70;;
28180;SDS011;15464;50.988;10.318;2023-04-06T03:06:19;22.15;;;15.73;;
28180;SDS011;15464;50.988;10.318;2023-04-06T03:08:46;19.27;;;14.18;;
28180;SDS011;15464;50.988;10.318;2023-04-06T03:11:13;17.30;;;14.02;;
28180;SDS011;15464;50.988;10.318;2023-04-06T03:13:40;16.85;;;13.38;;
28180;SDS011;15464;50.988;10.318;2023-04-06T03:16:07;17.73;;;12.95;;
28180;SDS011;15464;50.988;10.318;2023-04-06T03:18:33;14.05;;;12.15;;
28180;SDS011;15464;50.988;10.318;2023-04-06T03:21:00;16.45;;;12.80;;
28180;SDS011;15464;50.988;10.318;2023-04-06T03:23:27;25.23;;;18.33;;
28180;SDS011;15464;50.988;10.318;2023-04-06T03:25:53;19.95;;;13.93;;
28180;SDS011;15464;50.988;10.318;2023-04-06T03:28:20;16.15;;;12.90;;
28180;SDS011;15464;50.988;10.318;2023-04-06T03:30:47;18.02;;;12.48;;
28180;SDS011;15464;50.988;10.318;2023-04-06T03:33:14;18.55;;;13.32;;
28180;SDS011;15464;50.988;10.318;2023-04-06T03:35:40;17.25;;;13.30;;
28180;SDS011;15464;50.988;10.318;2023-04-06T03:38:07;17.63;;;13.75;;
28180;SDS011;15464;50.988;10.318;2023-04-06T03:40:34;14.40;;;12.25;;
28180;SDS011;15464;50.988;10.318;2023-04-06T03:43:01;18.48;;;13.45;;
28180;SDS011;15464;50.988;10.318;2023-04-06T03:45:27;15.32;;;12.00;;
28180;SDS011;15464;50.988;10.318;2023-04-06T03:47:54;18.52;;;13.52;;
28180;SDS011;15464;50.988;10.318;2023-04-06T03:50:21;20.50;;;14.93;;
28180;SDS011;15464;50.988;10.318;2023-04-06T03:52:48;21.85;;;16.80;;
28180;SDS011;15464;50.988;10.318;2023-04-06T03:55:15;20.42;;;15.32;;
28180;SDS011;15464;50.988;10.318;2023-04-06T03:57:41;19.73;;;15.25;;
28180;SDS011;15464;50.988;10.318;2023-04-06T04:00:08;19.35;;;14.45;;
28180;SDS011;15464;50.988;10.318;2023-04-06T04:02:36;17.00;;;13.95;;
28180;SDS011;15464;50.988;10.318;2023-04-06T04:05:03;19.58;;;13.02;;
28180;SDS011;15464;50.988;10.318;2023-04-06T04:07:30;18.92;;;13.80;;
28180;SDS011;15464;50.988;10.318;2023-04-06T04:09:56;19.08;;;13.52;;
28180;SDS011;15464;50.988;10.318;2023-04-06T04:12:23;14.35;;;11.02;;
28180;SDS011;15464;50.988;10.318;2023-04-06T04:14:50;16.20;;;12.40;;
28180;SDS011;15464;50.988;10.318;2023-04-06T04:17:17;17.83;;;14.07;;
28180;SDS011;15464;50.988;10.318;2023-04-06T04:19:43;16.52;;;12.80;;
28180;SDS011;15464;50.988;10.318;2023-04-06T04:22:10;17.15;;;13.43;;
28180;SDS011;15464;50.988;10.318;2023-04-06T04:24:37;15.55;;;12.27;;
28180;SDS011;15464;50.988;10.318;2023-04-06T04:27:04;18.38;;;14.45;;
28180;SDS011;15464;50.988;10.318;2023-04-06T04:29:31;21.63;;;16.17;;
28180;SDS011;15464;50.988;10.318;2023-04-06T04:31:58;21.48;;;16.40;;
28180;SDS011;15464;50.988;10.318;2023-04-06T04:34:24;21.20;;;16.10;;
28180;SDS011;15464;50.988;10.318;2023-04-06T04:36:52;19.58;;;14.80;;
28180;SDS011;15464;50.988;10.318;2023-04-06T04:39:19;20.85;;;14.82;;
28180;SDS011;15464;50.988;10.318;2023-04-06T04:41:46;20.75;;;15.43;;
28180;SDS011;15464;50.988;10.318;2023-04-06T04:44:12;23.15;;;16.48;;
28180;SDS011;15464;50.988;10.318;2023-04-06T04:46:39;21.35;;;14.95;;
28180;SDS011;15464;50.988;10.318;2023-04-06T04:49:07;26.55;;;15.65;;
28180;SDS011;15464;50.988;10.318;2023-04-06T04:51:34;20.13;;;14.52;;
28180;SDS011;15464;50.988;10.318;2023-04-06T04:54:02;22.77;;;15.98;;
28180;SDS011;15464;50.988;10.318;2023-04-06T04:56:29;23.83;;;15.88;;
28180;SDS011;15464;50.988;10.318;2023-04-06T04:58:56;19.38;;;14.50;;
28180;SDS011;15464;50.988;10.318;2023-04-06T05:01:23;24.35;;;16.92;;
28180;SDS011;15464;50.988;10.318;2023-04-06T05:03:49;23.88;;;16.30;;
28180;SDS011;15464;50.988;10.318;2023-04-06T05:06:16;18.40;;;14.20;;
28180;SDS011;15464;50.988;10.318;2023-04-06T05:08:45;23.45;;;16.17;;
28180;SDS011;15464;50.988;10.318;2023-04-06T05:11:11;24.95;;;16.45;;
28180;SDS011;15464;50.988;10.318;2023-04-06T05:13:38;20.52;;;14.25;;
28180;SDS011;15464;50.988;10.318;2023-04-06T05:16:05;20.42;;;14.15;;
28180;SDS011;15464;50.988;10.318;2023-04-06T05:18:32;19.92;;;14.60;;
28180;SDS011;15464;50.988;10.318;2023-04-06T05:20:59;19.80;;;13.52;;
28180;SDS011;15464;50.988;10.318;2023-04-06T05:23:27;18.23;;;14.02;;
28180;SDS011;15464;50.988;10.318;2023-04-06T05:25:53;19.80;;;14.20;;
28180;SDS011;15464;50.988;10.318;2023-04-06T05:28:20;20.30;;;15.18;;
28180;SDS011;15464;50.988;10.318;2023-04-06T05:30:47;18.95;;;12.63;;
28180;SDS011;15464;50.988;10.318;2023-04-06T05:33:14;15.88;;;12.93;;
28180;SDS011;15464;50.988;10.318;2023-04-06T05:35:40;21.00;;;15.13;;
28180;SDS011;15464;50.988;10.318;2023-04-06T05:38:07;20.60;;;14.65;;
28180;SDS011;15464;50.988;10.318;2023-04-06T05:40:36;20.85;;;14.82;;
28180;SDS011;15464;50.988;10.318;2023-04-06T05:43:04;22.65;;;15.68;;
28180;SDS011;15464;50.988;10.318;2023-04-06T05:45:31;18.85;;;13.98;;
28180;SDS011;15464;50.988;10.318;2023-04-06T05:47:58;20.05;;;13.75;;
28180;SDS011;15464;50.988;10.318;2023-04-06T05:50:24;16.73;;;13.35;;
28180;SDS011;15464;50.988;10.318;2023-04-06T05:52:51;15.98;;;13.02;;
28180;SDS011;15464;50.988;10.318;2023-04-06T05:55:18;17.50;;;13.93;;
28180;SDS011;15464;50.988;10.318;2023-04-06T05:57:44;22.55;;;16.00;;
28180;SDS011;15464;50.988;10.318;2023-04-06T06:00:11;21.83;;;15.45;;
28180;SDS011;15464;50.988;10.318;2023-04-06T06:02:39;19.42;;;15.35;;
28180;SDS011;15464;50.988;10.318;2023-04-06T06:05:08;20.65;;;14.77;;
28180;SDS011;15464;50.988;10.318;2023-04-06T06:07:36;19.55;;;15.95;;
28180;SDS011;15464;50.988;10.318;2023-04-06T06:10:03;23.42;;;17.05;;
28180;SDS011;15464;50.988;10.318;2023-04-06T06:12:30;22.40;;;16.88;;
28180;SDS011;15464;50.988;10.318;2023-04-06T06:14:56;27.58;;;17.80;;
28180;SDS011;15464;50.988;10.318;2023-04-06T06:17:23;23.88;;;15.85;;
28180;SDS011;15464;50.988;10.318;2023-04-06T06:19:50;18.40;;;14.82;;
28180;SDS011;15464;50.988;10.318;2023-04-06T06:22:17;24.73;;;15.65;;
28180;SDS011;15464;50.988;10.318;2023-04-06T06:24:43;19.25;;;14.77;;
28180;SDS011;15464;50.988;10.318;2023-04-06T06:27:10;22.95;;;14.40;;
28180;SDS011;15464;50.988;10.318;2023-04-06T06:29:37;18.80;;;14.98;;
28180;SDS011;15464;50.988;10.318;2023-04-06T06:32:04;36.95;;;15.82;;
28180;SDS011;15464;50.988;10.318;2023-04-06T06:34:31;18.02;;;14.23;;
28180;SDS011;15464;50.988;10.318;2023-04-06T06:36:58;17.85;;;15.07;;
28180;SDS011;15464;50.988;10.318;2023-04-06T06:39:24;22.25;;;15.18;;
28180;SDS011;15464;50.988;10.318;2023-04-06T06:41:51;21.50;;;14.77;;
28180;SDS011;15464;50.988;10.318;2023-04-06T06:44:18;19.75;;;15.65;;
28180;SDS011;15464;50.988;10.318;2023-04-06T06:46:45;20.17;;;15.82;;
28180;SDS011;15464;50.988;10.318;2023-04-06T06:49:11;18.75;;;15.18;;
28180;SDS011;15464;50.988;10.318;2023-04-06T06:51:38;20.65;;;15.88;;
28180;SDS011;15464;50.988;10.318;2023-04-06T06:54:05;20.33;;;15.38;;
28180;SDS011;15464;50.988;10.318;2023-04-06T06:56:33;21.90;;;16.98;;
28180;SDS011;15464;50.988;10.318;2023-04-06T06:59:02;21.42;;;15.27;;
28180;SDS011;15464;50.988;10.318;2023-04-06T07:01:28;20.08;;;15.75;;
28180;SDS011;15464;50.988;10.318;2023-04-06T07:03:55;25.00;;;16.92;;
28180;SDS011;15464;50.988;10.318;2023-04-06T07:06:22;107.50;;;21.10;;
28180;SDS011;15464;50.988;10.318;2023-04-06T07:08:49;19.67;;;16.05;;
28180;SDS011;15464;50.988;10.318;2023-04-06T07:11:16;159.93;;;27.25;;
28180;SDS011;15464;50.988;10.318;2023-04-06T07:13:42;21.48;;;15.10;;
28180;SDS011;15464;50.988;10.318;2023-04-06T07:16:09;21.38;;;14.98;;
28180;SDS011;15464;50.988;10.318;2023-04-06T07:18:36;18.15;;;14.55;;
28180;SDS011;15464;50.988;10.318;2023-04-06T07:21:03;20.27;;;14.43;;
28180;SDS011;15464;50.988;10.318;2023-04-06T07:23:30;16.90;;;14.70;;
28180;SDS011;15464;50.988;10.318;2023-04-06T07:25:57;20.75;;;14.68;;
28180;SDS011;15464;50.988;10.318;2023-04-06T07:28:23;17.50;;;13.88;;
28180;SDS011;15464;50.988;10.318;2023-04-06T07:30:50;20.23;;;15.30;;
28180;SDS011;15464;50.988;10.318;2023-04-06T07:33:17;18.48;;;13.73;;
28180;SDS011;15464;50.988;10.318;2023-04-06T07:35:44;20.73;;;14.25;;
28180;SDS011;15464;50.988;10.318;2023-04-06T07:38:11;15.98;;;12.98;;
28180;SDS011;15464;50.988;10.318;2023-04-06T07:40:38;17.90;;;13.23;;
28180;SDS011;15464;50.988;10.318;2023-04-06T07:43:05;17.98;;;12.88;;
28180;SDS011;15464;50.988;10.318;2023-04-06T07:45:32;17.65;;;12.68;;
28180;SDS011;15464;50.988;10.318;2023-04-06T07:47:58;17.67;;;12.45;;
28180;SDS011;15464;50.988;10.318;2023-04-06T07:50:25;15.13;;;11.10;;
28180;SDS011;15464;50.988;10.318;2023-04-06T07:52:52;15.05;;;12.88;;
28180;SDS011;15464;50.988;10.318;2023-04-06T07:55:18;15.93;;;10.88;;
28180;SDS011;15464;50.988;10.318;2023-04-06T07:57:45;12.90;;;10.50;;
28180;SDS011;15464;50.988;10.318;2023-04-06T08:00:12;13.93;;;11.70;;
28180;SDS011;15464;50.988;10.318;2023-04-06T08:02:39;10.68;;;9.60;;
28180;SDS011;15464;50.988;10.318;2023-04-06T08:05:06;13.23;;;10.75;;
28180;SDS011;15464;50.988;10.318;2023-04-06T08:07:34;13.05;;;10.02;;
28180;SDS011;15464;50.988;10.318;2023-04-06T08:10:01;13.23;;;10.25;;
28180;SDS011;15464;50.988;10.318;2023-04-06T08:12:28;12.18;;;8.98;;
28180;SDS011;15464;50.988;10.318;2023-04-06T08:14:56;13.30;;;9.50;;
28180;SDS011;15464;50.988;10.318;2023-04-06T08:17:23;14.75;;;10.13;;
28180;SDS011;15464;50.988;10.318;2023-04-06T08:19:49;15.80;;;10.65;;
28180;SDS011;15464;50.988;10.318;2023-04-06T08:22:16;14.32;;;9.80;;
28180;SDS011;15464;50.988;10.318;2023-04-06T08:24:43;14.07;;;10.00;;
28180;SDS011;15464;50.988;10.318;2023-04-06T08:27:10;13.45;;;9.68;;
28180;SDS011;15464;50.988;10.318;2023-04-06T08:29:37;10.02;;;8.57;;
28180;SDS011;15464;50.988;10.318;2023-04-06T08:32:04;14.85;;;9.00;;
28180;SDS011;15464;50.988;10.318;2023-04-06T08:34:32;12.65;;;9.63;;
28180;SDS011;15464;50.988;10.318;2023-04-06T08:36:59;12.77;;;8.13;;
28180;SDS011;15464;50.988;10.318;2023-04-06T08:39:27;11.32;;;8.13;;
28180;SDS011;15464;50.988;10.318;2023-04-06T08:41:55;11.57;;;8.05;;
28180;SDS011;15464;50.988;10.318;2023-04-06T08:44:26;9.73;;;7.35;;
28180;SDS011;15464;50.988;10.318;2023-04-06T08:46:53;13.50;;;8.60;;
28180;SDS011;15464;50.988;10.318;2023-04-06T08:49:21;10.63;;;7.88;;
28180;SDS011;15464;50.988;10.318;2023-04-06T08:51:48;14.27;;;8.50;;
28180;SDS011;15464;50.988;10.318;2023-04-06T08:54:16;10.85;;;8.23;;
28180;SDS011;15464;50.988;10.318;2023-04-06T08:56:43;9.52;;;7.85;;
28180;SDS011;15464;50.988;10.318;2023-04-06T08:59:10;10.48;;;7.30;;
28180;SDS011;15464;50.988;10.318;2023-04-06T09:01:38;10.25;;;7.50;;
28180;SDS011;15464;50.988;10.318;2023-04-06T09:04:09;9.38;;;6.95;;
28180;SDS011;15464;50.988;10.318;2023-04-06T09:06:39;11.55;;;7.78;;
28180;SDS011;15464;50.988;10.318;2023-04-06T09:09:07;12.57;;;7.75;;
28180;SDS011;15464;50.988;10.318;2023-04-06T09:14:13;8.13;;;7.00;;
28180;SDS011;15464;50.988;10.318;2023-04-06T09:16:40;10.23;;;6.88;;
28180;SDS011;15464;50.988;10.318;2023-04-06T09:19:12;8.77;;;6.70;;
28180;SDS011;15464;50.988;10.318;2023-04-06T09:21:39;10.63;;;7.22;;
28180;SDS011;15464;50.988;10.318;2023-04-06T09:24:09;10.52;;;7.05;;
28180;SDS011;15464;50.988;10.318;2023-04-06T09:26:45;9.07;;;6.78;;
28180;SDS011;15464;50.988;10.318;2023-04-06T09:29:23;8.52;;;6.80;;
28180;SDS011;15464;50.988;10.318;2023-04-06T09:32:01;11.00;;;7.80;;
28180;SDS011;15464;50.988;10.318;2023-04-06T09:34:29;10.63;;;6.90;;
28180;SDS011;15464;50.988;10.318;2023-04-06T09:36:55;7.85;;;6.60;;
28180;SDS011;15464;50.988;10.318;2023-04-06T09:39:22;9.13;;;7.25;;
28180;SDS011;15464;50.988;10.318;2023-04-06T09:41:52;7.43;;;6.53;;
28180;SDS011;15464;50.988;10.318;2023-04-06T09:44:20;8.88;;;7.10;;
28180;SDS011;15464;50.988;10.318;2023-04-06T09:46:47;8.55;;;6.80;;
28180;SDS011;15464;50.988;10.318;2023-04-06T09:49:26;7.78;;;6.32;;
28180;SDS011;15464;50.988;10.318;2023-04-06T09:54:23;8.02;;;6.35;;
28180;SDS011;15464;50.988;10.318;2023-04-06T10:02:29;10.65;;;7.00;;
28180;SDS011;15464;50.988;10.318;2023-04-06T10:06:03;11.40;;;6.65;;
28180;SDS011;15464;50.988;10.318;2023-04-06T10:08:06;10.77;;;6.72;;
28180;SDS011;15464;50.988;10.318;2023-04-06T10:10:35;9.82;;;7.57;;
28180;SDS011;15464;50.988;10.318;2023-04-06T10:13:02;8.40;;;6.95;;
28180;SDS011;15464;50.988;10.318;2023-04-06T10:15:31;8.20;;;7.07;;
28180;SDS011;15464;50.988;10.318;2023-04-06T10:17:58;9.68;;;7.38;;
28180;SDS011;15464;50.988;10.318;2023-04-06T10:20:38;9.70;;;7.75;;
28180;SDS011;15464;50.988;10.318;2023-04-06T10:23:06;10.73;;;7.57;;
28180;SDS011;15464;50.988;10.318;2023-04-06T10:25:57;10.90;;;7.43;;
28180;SDS011;15464;50.988;10.318;2023-04-06T10:28:26;12.65;;;8.32;;
28180;SDS011;15464;50.988;10.318;2023-04-06T10:30:58;12.60;;;8.15;;
28180;SDS011;15464;50.988;10.318;2023-04-06T10:33:26;11.07;;;8.15;;
28180;SDS011;15464;50.988;10.318;2023-04-06T10:35:53;8.50;;;7.25;;
28180;SDS011;15464;50.988;10.318;2023-04-06T10:38:32;10.05;;;7.80;;
28180;SDS011;15464;50.988;10.318;2023-04-06T10:41:05;9.10;;;7.95;;
28180;SDS011;15464;50.988;10.318;2023-04-06T10:43:33;8.88;;;7.75;;
28180;SDS011;15464;50.988;10.318;2023-04-06T10:46:02;10.32;;;7.38;;
28180;SDS011;15464;50.988;10.318;2023-04-06T10:48:37;10.47;;;7.80;;
28180;SDS011;15464;50.988;10.318;2023-04-06T10:53:41;11.02;;;8.43;;
28180;SDS011;15464;50.988;10.318;2023-04-06T10:56:10;8.93;;;7.13;;
28180;SDS011;15464;50.988;10.318;2023-04-06T10:58:38;8.97;;;7.97;;
28180;SDS011;15464;50.988;10.318;2023-04-06T11:01:17;12.07;;;8.00;;
28180;SDS011;15464;50.988;10.318;2023-04-06T11:03:46;9.75;;;7.80;;
28180;SDS011;15464;50.988;10.318;2023-04-06T11:06:47;10.63;;;8.18;;
28180;SDS011;15464;50.988;10.318;2023-04-06T11:09:07;8.68;;;7.78;;
28180;SDS011;15464;50.988;10.318;2023-04-06T11:11:38;9.48;;;7.30;;
28180;SDS011;15464;50.988;10.318;2023-04-06T11:14:05;10.98;;;8.35;;
28180;SDS011;15464;50.988;10.318;2023-04-06T11:16:32;10.00;;;7.65;;
28180;SDS011;15464;50.988;10.318;2023-04-06T11:19:03;11.40;;;8.05;;
28180;SDS011;15464;50.988;10.318;2023-04-06T11:21:33;9.52;;;8.52;;
28180;SDS011;15464;50.988;10.318;2023-04-06T11:26:43;11.32;;;7.68;;
28180;SDS011;15464;50.988;10.318;2023-04-06T11:29:12;10.57;;;8.40;;
28180;SDS011;15464;50.988;10.318;2023-04-06T11:31:40;13.85;;;7.97;;
28180;SDS011;15464;50.988;10.318;2023-04-06T11:34:12;8.68;;;7.38;;
28180;SDS011;15464;50.988;10.318;2023-04-06T11:36:43;10.13;;;7.20;;
28180;SDS011;15464;50.988;10.318;2023-04-06T11:39:12;8.87;;;7.97;;
28180;SDS011;15464;50.988;10.318;2023-04-06T11:41:39;11.25;;;7.85;;
28180;SDS011;15464;50.988;10.318;2023-04-06T11:44:09;10.30;;;8.75;;
28180;SDS011;15464;50.988;10.318;2023-04-06T11:46:36;8.02;;;7.22;;
28180;SDS011;15464;50.988;10.318;2023-04-06T11:49:02;9.32;;;7.95;;
28180;SDS011;15464;50.988;10.318;2023-04-06T11:51:29;9.27;;;8.27;;
28180;SDS011;15464;50.988;10.318;2023-04-06T11:53:56;9.00;;;8.10;;
28180;SDS011;15464;50.988;10.318;2023-04-06T11:56:23;8.95;;;7.85;;
28180;SDS011;15464;50.988;10.318;2023-04-06T11:58:52;9.27;;;7.40;;
28180;SDS011;15464;50.988;10.318;2023-04-06T12:01:20;8.68;;;7.65;;
28180;SDS011;15464;50.988;10.318;2023-04-06T12:03:47;9.63;;;7.22;;
28180;SDS011;15464;50.988;10.318;2023-04-06T12:06:15;9.80;;;7.57;;
28180;SDS011;15464;50.988;10.318;2023-04-06T12:08:41;9.23;;;7.75;;
28180;SDS011;15464;50.988;10.318;2023-04-06T12:11:08;8.75;;;7.80;;
28180;SDS011;15464;50.988;10.318;2023-04-06T12:13:35;7.80;;;7.00;;
28180;SDS011;15464;50.988;10.318;2023-04-06T12:16:02;8.57;;;6.97;;
28180;SDS011;15464;50.988;10.318;2023-04-06T12:18:29;8.88;;;7.50;;
28180;SDS011;15464;50.988;10.318;2023-04-06T12:20:56;9.88;;;7.28;;
28180;SDS011;15464;50.988;10.318;2023-04-06T12:23:23;10.80;;;7.53;;
28180;SDS011;15464;50.988;10.318;2023-04-06T12:25:48;8.27;;;6.97;;
28180;SDS011;15464;50.988;10.318;2023-04-06T12:28:15;9.40;;;8.20;;
28180;SDS011;15464;50.988;10.318;2023-04-06T12:30:42;9.85;;;8.30;;
28180;SDS011;15464;50.988;10.318;2023-04-06T12:33:08;8.73;;;7.82;;
28180;SDS011;15464;50.988;10.318;2023-04-06T12:35:36;8.23;;;7.22;;
28180;SDS011;15464;50.988;10.318;2023-04-06T12:38:03;11.98;;;7.88;;
28180;SDS011;15464;50.988;10.318;2023-04-06T12:40:30;8.80;;;7.38;;
28180;SDS011;15464;50.988;10.318;2023-04-06T12:42:56;8.63;;;7.15;;
28180;SDS011;15464;50.988;10.318;2023-04-06T12:45:23;8.10;;;7.22;;
28180;SDS011;15464;50.988;10.318;2023-04-06T12:47:50;12.85;;;7.22;;
28180;SDS011;15464;50.988;10.318;2023-04-06T12:50:17;7.65;;;6.55;;
28180;SDS011;15464;50.988;10.318;2023-04-06T12:52:44;6.57;;;5.93;;
28180;SDS011;15464;50.988;10.318;2023-04-06T12:55:11;7.10;;;6.40;;
28180;SDS011;15464;50.988;10.318;2023-04-06T12:57:37;8.98;;;6.75;;
28180;SDS011;15464;50.988;10.318;2023-04-06T13:00:04;7.65;;;6.85;;
28180;SDS011;15464;50.988;10.318;2023-04-06T13:02:34;6.65;;;6.03;;
28180;SDS011;15464;50.988;10.318;2023-04-06T13:05:01;6.97;;;6.28;;
28180;SDS011;15464;50.988;10.318;2023-04-06T13:07:28;7.00;;;5.78;;
28180;SDS011;15464;50.988;10.318;2023-04-06T13:09:55;8.82;;;6.70;;
28180;SDS011;15464;50.988;10.318;2023-04-06T13:12:21;7.60;;;6.88;;
28180;SDS011;15464;50.988;10.318;2023-04-06T13:14:48;6.25;;;5.60;;
28180;SDS011;15464;50.988;10.318;2023-04-06T13:17:18;9.57;;;6.95;;
28180;SDS011;15464;50.988;10.318;2023-04-06T13:19:45;6.53;;;5.93;;
28180;SDS011;15464;50.988;10.318;2023-04-06T13:22:12;7.63;;;6.10;;
28180;SDS011;15464;50.988;10.318;2023-04-06T13:24:38;7.85;;;5.90;;
28180;SDS011;15464;50.988;10.318;2023-04-06T13:27:05;6.65;;;5.95;;
28180;SDS011;15464;50.988;10.318;2023-04-06T13:29:32;6.53;;;5.93;;
28180;SDS011;15464;50.988;10.318;2023-04-06T13:32:00;6.20;;;5.38;;
28180;SDS011;15464;50.988;10.318;2023-04-06T13:34:27;6.30;;;5.70;;
28180;SDS011;15464;50.988;10.318;2023-04-06T13:36:53;6.88;;;6.18;;
28180;SDS011;15464;50.988;10.318;2023-04-06T13:39:20;6.55;;;5.18;;
28180;SDS011;15464;50.988;10.318;2023-04-06T13:41:47;8.05;;;5.47;;
28180;SDS011;15464;50.988;10.318;2023-04-06T13:44:14;6.38;;;5.10;;
28180;SDS011;15464;50.988;10.318;2023-04-06T13:46:40;6.32;;;5.50;;
28180;SDS011;15464;50.988;10.318;2023-04-06T13:49:07;5.80;;;4.90;;
28180;SDS011;15464;50.988;10.318;2023-04-06T13:51:34;6.53;;;5.38;;
28180;SDS011;15464;50.988;10.318;2023-04-06T13:54:01;6.28;;;5.32;;
28180;SDS011;15464;50.988;10.318;2023-04-06T13:56:28;5.82;;;4.70;;
28180;SDS011;15464;50.988;10.318;2023-04-06T13:58:54;5.35;;;4.78;;
28180;SDS011;15464;50.988;10.318;2023-04-06T14:01:22;7.07;;;5.25;;
28180;SDS011;15464;50.988;10.318;2023-04-06T14:03:50;8.15;;;5.07;;
28180;SDS011;15464;50.988;10.318;2023-04-06T14:06:17;5.25;;;4.60;;
28180;SDS011;15464;50.988;10.318;2023-04-06T14:08:46;5.60;;;4.40;;
28180;SDS011;15464;50.988;10.318;2023-04-06T14:11:13;6.40;;;4.75;;
28180;SDS011;15464;50.988;10.318;2023-04-06T14:13:41;5.10;;;4.60;;
28180;SDS011;15464;50.988;10.318;2023-04-06T14:16:08;5.03;;;4.38;;
28180;SDS011;15464;50.988;10.318;2023-04-06T14:18:35;7.20;;;4.70;;
28180;SDS011;15464;50.988;10.318;2023-04-06T14:21:03;4.15;;;3.35;;
28180;SDS011;15464;50.988;10.318;2023-04-06T14:23:30;5.05;;;4.35;;
28180;SDS011;15464;50.988;10.318;2023-04-06T14:26:06;4.47;;;4.05;;
28180;SDS011;15464;50.988;10.318;2023-04-06T14:28:34;4.85;;;4.03;;
28180;SDS011;15464;50.988;10.318;2023-04-06T14:31:09;4.97;;;4.03;;
28180;SDS011;15464;50.988;10.318;2023-04-06T14:33:38;8.55;;;4.07;;
28180;SDS011;15464;50.988;10.318;2023-04-06T14:36:05;5.07;;;4.18;;